createdAt,value
2023-03-08T00:02:23.417Z,0.54
2023-03-08T00:04:56.222Z,0.50
2023-03-08T00:07:29.153Z,0.58
2023-03-08T00:10:01.752Z,0.43
2023-03-08T00:12:34.313Z,0.44
2023-03-08T00:15:07.608Z,0.41
2023-03-08T00:17:40.573Z,0.38
2023-03-08T00:20:14.009Z,0.46
2023-03-08T00:22:46.543Z,0.49
2023-03-08T00:25:19.234Z,0.48
2023-03-08T00:27:51.826Z,0.44
2023-03-08T00:30:24.340Z,0.55
2023-03-08T00:32:56.859Z,0.47
2023-03-08T00:35:29.428Z,0.47
2023-03-08T00:38:02.012Z,0.58
2023-03-08T00:40:34.481Z,0.64
2023-03-08T00:43:07.029Z,0.51
2023-03-08T00:45:39.559Z,0.61
2023-03-08T00:48:12.517Z,0.68
2023-03-08T00:50:45.894Z,0.71
2023-03-08T00:53:19.048Z,0.73
2023-03-08T00:55:58.782Z,0.61
2023-03-08T00:58:32.046Z,0.66
2023-03-08T01:01:06.342Z,0.76
2023-03-08T01:03:38.873Z,0.70
2023-03-08T01:06:15.016Z,0.80
2023-03-08T01:08:47.715Z,0.82
2023-03-08T01:11:27.125Z,0.77
2023-03-08T01:13:59.665Z,0.91
2023-03-08T01:16:33.661Z,0.89
2023-03-08T01:19:06.276Z,0.85
2023-03-08T01:21:38.934Z,0.85
2023-03-08T01:24:11.446Z,0.87
2023-03-08T01:26:44.029Z,0.93
2023-03-08T01:29:16.584Z,0.99
2023-03-08T01:31:49.148Z,0.87
2023-03-08T01:34:21.647Z,1.00
2023-03-08T01:36:54.148Z,1.07
2023-03-08T01:39:26.695Z,1.03
2023-03-08T01:41:59.208Z,0.93
2023-03-08T01:44:55.235Z,1.03
2023-03-08T01:47:36.039Z,0.90
2023-03-08T01:50:13.452Z,1.02
2023-03-08T01:52:53.484Z,1.01
2023-03-08T01:55:26.278Z,1.13
2023-03-08T01:57:59.369Z,1.03
2023-03-08T02:00:31.934Z,1.08
2023-03-08T02:03:10.166Z,1.10
2023-03-08T02:05:44.365Z,1.19
2023-03-08T02:08:17.520Z,1.16
2023-03-08T02:10:50.665Z,1.24
2023-03-08T02:13:23.340Z,1.01
2023-03-08T02:15:58.901Z,1.26
2023-03-08T02:18:31.457Z,1.24
2023-03-08T02:21:04.052Z,1.30
2023-03-08T02:23:36.509Z,1.23
2023-03-08T02:26:09.242Z,1.29
2023-03-08T02:28:42.890Z,1.24
2023-03-08T02:31:16.264Z,1.33
2023-03-08T02:33:48.817Z,1.20
2023-03-08T02:36:21.421Z,1.25
2023-03-08T02:38:54.058Z,1.23
2023-03-08T02:41:26.743Z,1.12
2023-03-08T02:43:59.263Z,1.19
2023-03-08T02:46:31.783Z,1.16
2023-03-08T02:49:04.324Z,1.25
2023-03-08T02:51:36.857Z,1.23
2023-03-08T02:54:09.488Z,1.20
2023-03-08T02:56:42.126Z,1.24
2023-03-08T02:59:14.838Z,1.27
2023-03-08T03:01:47.542Z,1.11
2023-03-08T03:04:20.075Z,1.15
2023-03-08T03:06:52.528Z,1.18
2023-03-08T03:09:25.454Z,1.04
2023-03-08T03:11:57.930Z,1.16
2023-03-08T03:14:30.548Z,1.07
2023-03-08T03:17:03.079Z,1.18
2023-03-08T03:19:37.075Z,1.23
2023-03-08T03:22:09.568Z,1.28
2023-03-08T03:24:42.214Z,1.26
2023-03-08T03:27:14.810Z,1.24
2023-03-08T03:29:48.305Z,1.19
2023-03-08T03:32:20.964Z,1.19
2023-03-08T03:34:53.554Z,1.18
2023-03-08T03:37:26.170Z,1.25
2023-03-08T03:39:58.941Z,1.21
2023-03-08T03:42:31.492Z,1.28
2023-03-08T03:45:04.587Z,1.23
2023-03-08T03:47:37.153Z,1.32
2023-03-08T03:50:10.656Z,1.29
2023-03-08T03:52:43.262Z,1.29
2023-03-08T03:55:15.904Z,1.11
2023-03-08T03:57:48.511Z,1.17
2023-03-08T04:00:22.147Z,1.22
2023-03-08T04:02:54.730Z,1.27
2023-03-08T04:05:27.356Z,1.21
2023-03-08T04:08:00.010Z,1.18
2023-03-08T04:10:32.760Z,1.23
2023-03-08T04:13:05.588Z,1.10
2023-03-08T04:15:38.106Z,1.16
2023-03-08T04:18:10.651Z,1.16
2023-03-08T04:20:45.703Z,0.97
2023-03-08T04:23:18.244Z,1.14
2023-03-08T04:25:50.916Z,1.03
2023-03-08T04:28:23.593Z,1.07
2023-03-08T04:30:57.041Z,1.17
2023-03-08T04:33:29.542Z,1.18
2023-03-08T04:36:02.142Z,1.26
2023-03-08T04:38:34.803Z,1.06
2023-03-08T04:41:13.736Z,1.01
2023-03-08T04:43:52.973Z,1.09
2023-03-08T04:46:28.101Z,1.10
2023-03-08T04:49:00.685Z,1.04
2023-03-08T04:51:33.247Z,1.10
2023-03-08T04:54:06.084Z,1.10
2023-03-08T04:56:38.607Z,1.08
2023-03-08T04:59:11.110Z,1.02
2023-03-08T05:01:43.801Z,0.99
2023-03-08T05:04:16.404Z,1.06
2023-03-08T05:06:49.164Z,1.13
2023-03-08T05:09:21.748Z,0.98
2023-03-08T05:11:54.293Z,1.14
2023-03-08T05:14:26.915Z,1.23
2023-03-08T05:17:02.091Z,1.27
2023-03-08T05:19:35.035Z,1.27
2023-03-08T05:22:07.559Z,1.22
2023-03-08T05:24:43.837Z,1.22
2023-03-08T05:27:16.538Z,1.27
2023-03-08T05:29:51.916Z,1.12
2023-03-08T05:32:24.415Z,1.21
2023-03-08T05:34:56.941Z,1.24
2023-03-08T05:37:29.485Z,1.27
2023-03-08T05:40:06.166Z,1.22
2023-03-08T05:42:38.664Z,1.10
2023-03-08T05:45:11.693Z,1.01
2023-03-08T05:47:45.026Z,0.86
2023-03-08T05:50:17.762Z,0.87
2023-03-08T05:52:50.252Z,0.82
2023-03-08T05:55:22.824Z,0.82
2023-03-08T05:57:55.316Z,0.65
2023-03-08T06:00:27.956Z,0.63
2023-03-08T06:03:04.033Z,0.58
2023-03-08T06:05:37.074Z,0.46
2023-03-08T06:08:09.690Z,0.55
2023-03-08T06:10:42.196Z,0.34
2023-03-08T06:13:14.760Z,0.41
2023-03-08T06:15:47.577Z,0.42
2023-03-08T06:18:20.156Z,0.37
2023-03-08T06:21:09.187Z,0.42
2023-03-08T06:23:45.476Z,0.36
2023-03-08T06:26:18.344Z,0.35
2023-03-08T06:28:51.059Z,0.28
2023-03-08T06:31:23.869Z,0.18
2023-03-08T06:33:56.573Z,0.29
2023-03-08T06:36:29.148Z,0.26
2023-03-08T06:39:02.233Z,0.13
2023-03-08T06:41:34.893Z,0.09
2023-03-08T06:44:07.640Z,0.19
2023-03-08T06:46:40.412Z,0.13
2023-03-08T06:49:13.006Z,0.09
2023-03-08T06:51:45.666Z,-0.12
2023-03-08T06:54:18.480Z,0.05
2023-03-08T06:56:51.133Z,-0.08
2023-03-08T06:59:23.730Z,-0.16
2023-03-08T07:01:56.375Z,-0.09
2023-03-08T07:04:29.120Z,-0.14
2023-03-08T07:07:02.107Z,0.04
2023-03-08T07:09:35.339Z,0.05
2023-03-08T07:12:08.367Z,0.03
2023-03-08T07:14:41.149Z,-0.01
2023-03-08T07:17:13.768Z,-0.02
2023-03-08T07:19:46.281Z,-0.10
2023-03-08T07:22:19.069Z,-0.11
2023-03-08T07:24:51.743Z,0.00
2023-03-08T07:27:24.924Z,0.05
2023-03-08T07:29:57.775Z,-0.06
2023-03-08T07:32:30.573Z,0.13
2023-03-08T07:35:03.534Z,0.25
2023-03-08T07:37:37.433Z,-0.09
2023-03-08T07:40:12.555Z,0.06
2023-03-08T07:42:45.356Z,0.07
2023-03-08T07:45:18.757Z,0.02
2023-03-08T07:47:55.021Z,0.07
2023-03-08T07:50:27.641Z,0.24
2023-03-08T07:53:00.497Z,0.12
2023-03-08T07:55:33.129Z,0.14
2023-03-08T07:58:06.185Z,0.24
2023-03-08T08:00:38.737Z,0.19
2023-03-08T08:03:11.513Z,0.23
2023-03-08T08:05:44.290Z,0.31
2023-03-08T08:08:17.103Z,0.33
2023-03-08T08:10:49.716Z,0.28
2023-03-08T08:13:22.433Z,0.37
2023-03-08T08:16:02.657Z,0.32
2023-03-08T08:18:36.315Z,0.24
2023-03-08T08:21:13.396Z,0.51
2023-03-08T08:23:47.670Z,0.37
2023-03-08T08:26:22.112Z,0.46
2023-03-08T08:28:55.460Z,0.34
2023-03-08T08:31:33.084Z,0.43
2023-03-08T08:34:05.678Z,0.36
2023-03-08T08:36:38.419Z,0.56
2023-03-08T08:39:11.019Z,0.46
2023-03-08T08:41:43.689Z,0.26
2023-03-08T08:44:16.623Z,0.34
2023-03-08T08:46:49.333Z,0.36
2023-03-08T08:49:21.921Z,0.42
2023-03-08T08:51:54.463Z,0.61
2023-03-08T08:54:27.124Z,0.48
2023-03-08T08:57:00.301Z,0.46
2023-03-08T08:59:33.538Z,0.65
2023-03-08T09:02:07.430Z,0.79
2023-03-08T09:04:40.474Z,0.74
2023-03-08T09:07:13.364Z,0.68
2023-03-08T09:09:46.402Z,0.65
2023-03-08T09:12:21.137Z,0.64
2023-03-08T09:14:53.775Z,0.41
2023-03-08T09:17:26.523Z,0.61
2023-03-08T09:19:59.716Z,0.33
2023-03-08T09:22:32.747Z,0.65
2023-03-08T09:25:07.752Z,0.36
2023-03-08T09:27:42.717Z,0.51
2023-03-08T09:30:17.721Z,0.56
2023-03-08T09:32:50.550Z,0.63
2023-03-08T09:35:23.343Z,0.63
2023-03-08T09:37:56.644Z,0.56
2023-03-08T09:40:48.263Z,0.73
2023-03-08T09:43:43.353Z,0.93
2023-03-08T09:46:28.969Z,1.17
2023-03-08T09:49:05.868Z,1.02
2023-03-08T09:51:45.972Z,1.44
2023-03-08T09:54:24.241Z,1.21
2023-03-08T09:56:57.072Z,1.36
2023-03-08T09:59:49.628Z,1.50
2023-03-08T10:02:56.507Z,1.79
2023-03-08T10:06:13.228Z,1.73
2023-03-08T10:09:25.670Z,2.09
2023-03-08T10:12:13.294Z,2.10
2023-03-08T10:14:54.542Z,2.58
2023-03-08T10:18:02.476Z,2.80
2023-03-08T10:20:38.041Z,2.54
2023-03-08T10:23:23.038Z,2.37
2023-03-08T10:25:55.720Z,2.41
2023-03-08T10:28:28.737Z,2.23
2023-03-08T10:31:04.824Z,2.17
2023-03-08T10:33:37.504Z,2.39
2023-03-08T10:36:23.737Z,2.29
2023-03-08T10:39:04.873Z,2.52
2023-03-08T10:41:58.196Z,2.38
2023-03-08T10:44:51.868Z,2.54
2023-03-08T10:47:32.519Z,2.68
2023-03-08T10:50:37.514Z,2.54
2023-03-08T10:53:20.748Z,2.41
2023-03-08T10:55:53.355Z,2.15
2023-03-08T10:58:39.181Z,2.40
2023-03-08T11:01:35.101Z,2.50
2023-03-08T11:04:19.726Z,2.50
2023-03-08T11:06:52.678Z,2.07
2023-03-08T11:09:36.857Z,2.02
2023-03-08T11:12:26.291Z,2.24
2023-03-08T11:14:59.094Z,2.03
2023-03-08T11:17:39.484Z,2.13
2023-03-08T11:20:24.817Z,2.37
2023-03-08T11:23:30.545Z,2.02
2023-03-08T11:26:40.730Z,2.35
2023-03-08T11:30:07.480Z,2.32
2023-03-08T11:33:05.173Z,2.59
2023-03-08T11:36:16.262Z,2.74
2023-03-08T11:39:04.724Z,2.66
2023-03-08T11:42:24.216Z,2.67
2023-03-08T11:45:20.935Z,2.37
2023-03-08T11:48:12.561Z,2.22
2023-03-08T11:51:16.656Z,2.20
2023-03-08T11:54:23.558Z,2.28
2023-03-08T11:57:10.510Z,2.12
2023-03-08T11:59:56.848Z,2.35
2023-03-08T12:02:39.980Z,2.60
2023-03-08T12:05:21.219Z,2.40
2023-03-08T12:08:05.587Z,2.51
2023-03-08T12:10:40.997Z,2.25
2023-03-08T12:13:40.882Z,2.06
2023-03-08T12:16:37.821Z,2.40
2023-03-08T12:19:31.862Z,2.39
2023-03-08T12:22:33.461Z,2.32
2023-03-08T12:25:13.122Z,2.30
2023-03-08T12:27:55.299Z,2.52
2023-03-08T12:31:07.866Z,2.38
2023-03-08T12:33:47.829Z,2.33
2023-03-08T12:36:24.943Z,2.49
2023-03-08T12:39:08.663Z,2.42
2023-03-08T12:41:41.322Z,2.44
2023-03-08T12:44:26.985Z,2.62
2023-03-08T12:47:22.957Z,2.55
2023-03-08T12:49:56.716Z,2.55
2023-03-08T12:52:36.880Z,2.31
2023-03-08T12:55:31.569Z,2.23
2023-03-08T12:58:04.790Z,2.42
2023-03-08T13:00:39.344Z,2.46
2023-03-08T13:03:14.906Z,2.35
2023-03-08T13:05:49.896Z,2.09
2023-03-08T13:08:43.112Z,2.27
2023-03-08T13:11:17.676Z,2.27
2023-03-08T13:13:57.365Z,2.15
2023-03-08T13:16:40.000Z,2.49
2023-03-08T13:19:15.575Z,2.62
2023-03-08T13:21:57.902Z,2.70
2023-03-08T13:25:35.057Z,2.53
2023-03-08T13:28:26.362Z,2.52
2023-03-08T13:31:11.088Z,2.45
2023-03-08T13:33:55.341Z,2.37
2023-03-08T13:36:32.555Z,2.57
2023-03-08T13:39:21.003Z,2.39
2023-03-08T13:42:06.629Z,2.50
2023-03-08T13:44:39.604Z,2.34
2023-03-08T13:47:35.377Z,2.12
2023-03-08T13:50:16.809Z,2.28
2023-03-08T13:52:49.954Z,2.24
2023-03-08T13:55:35.093Z,2.43
2023-03-08T13:58:23.079Z,2.38
2023-03-08T14:01:13.493Z,2.12
2023-03-08T14:03:47.358Z,2.03
2023-03-08T14:06:29.857Z,2.02
2023-03-08T14:09:03.616Z,2.07
2023-03-08T14:11:42.058Z,2.27
2023-03-08T14:14:28.976Z,2.19
2023-03-08T14:17:02.700Z,2.20
2023-03-08T14:19:42.440Z,2.15
2023-03-08T14:22:32.261Z,2.44
2023-03-08T14:25:39.353Z,2.25
2023-03-08T14:28:39.846Z,2.28
2023-03-08T14:31:28.693Z,2.23
2023-03-08T14:34:04.549Z,2.17
2023-03-08T14:36:46.486Z,2.00
2023-03-08T14:39:19.934Z,2.10
2023-03-08T14:41:53.991Z,2.23
2023-03-08T14:44:29.495Z,2.29
2023-03-08T14:47:25.153Z,2.40
2023-03-08T14:50:08.705Z,2.61
2023-03-08T14:52:49.920Z,2.65
2023-03-08T14:55:27.677Z,2.46
2023-03-08T14:58:12.942Z,2.33
2023-03-08T15:00:51.667Z,2.69
2023-03-08T15:03:25.317Z,2.66
2023-03-08T15:06:01.472Z,2.64
2023-03-08T15:08:34.365Z,2.37
2023-03-08T15:11:08.133Z,2.27
2023-03-08T15:13:47.927Z,2.53
2023-03-08T15:16:20.704Z,2.50
2023-03-08T15:18:53.472Z,2.14
2023-03-08T15:21:29.618Z,2.32
2023-03-08T15:24:04.080Z,2.07
2023-03-08T15:26:37.212Z,1.99
2023-03-08T15:29:30.094Z,2.11
2023-03-08T15:32:02.883Z,2.28
2023-03-08T15:34:37.964Z,2.32
2023-03-08T15:37:14.802Z,2.43
2023-03-08T15:39:50.495Z,2.56
2023-03-08T15:42:26.519Z,2.59
2023-03-08T15:44:59.475Z,2.67
2023-03-08T15:47:32.278Z,2.31
2023-03-08T15:50:12.920Z,2.30
2023-03-08T15:52:45.901Z,2.28
2023-03-08T15:55:18.771Z,2.32
2023-03-08T15:57:55.358Z,2.37
2023-03-08T16:00:28.977Z,2.45
2023-03-08T16:03:03.377Z,2.35
2023-03-08T16:05:38.672Z,2.23
2023-03-08T16:08:13.877Z,2.21
2023-03-08T16:10:50.016Z,2.06
2023-03-08T16:13:22.762Z,2.22
2023-03-08T16:16:02.574Z,2.17
2023-03-08T16:18:37.181Z,2.23
2023-03-08T16:21:12.932Z,2.18
2023-03-08T16:23:45.697Z,2.16
2023-03-08T16:26:18.957Z,2.17
2023-03-08T16:28:51.956Z,2.24
2023-03-08T16:31:24.805Z,2.10
2023-03-08T16:33:57.697Z,2.17
2023-03-08T16:36:30.502Z,2.07
2023-03-08T16:39:06.125Z,2.19
2023-03-08T16:41:40.939Z,2.08
2023-03-08T16:44:28.511Z,2.08
2023-03-08T16:47:01.266Z,2.00
2023-03-08T16:49:35.604Z,1.99
2023-03-08T16:52:08.559Z,1.95
2023-03-08T16:54:44.294Z,1.94
2023-03-08T16:57:19.698Z,1.93
2023-03-08T16:59:52.713Z,1.91
2023-03-08T17:02:25.660Z,2.12
2023-03-08T17:04:58.379Z,1.84
2023-03-08T17:07:31.401Z,1.67
2023-03-08T17:10:05.921Z,1.68
2023-03-08T17:12:38.590Z,1.66
2023-03-08T17:15:11.980Z,1.64
2023-03-08T17:17:44.796Z,1.56
2023-03-08T17:20:17.601Z,1.65
2023-03-08T17:22:50.210Z,1.69
2023-03-08T17:25:22.903Z,1.77
2023-03-08T17:27:55.611Z,1.75
2023-03-08T17:30:28.771Z,1.63
2023-03-08T17:33:01.300Z,1.51
2023-03-08T17:35:35.026Z,1.42
2023-03-08T17:38:08.342Z,1.40
2023-03-08T17:40:41.179Z,1.34
2023-03-08T17:43:15.260Z,1.49
2023-03-08T17:46:04.806Z,1.57
2023-03-08T17:48:38.411Z,1.40
2023-03-08T17:51:18.765Z,1.35
2023-03-08T17:53:58.377Z,1.37
2023-03-08T17:56:38.813Z,1.33
2023-03-08T17:59:18.669Z,1.25
2023-03-08T18:01:51.305Z,1.14
2023-03-08T18:04:29.217Z,1.12
2023-03-08T18:07:09.552Z,1.20
2023-03-08T18:09:57.782Z,1.08
2023-03-08T18:12:33.986Z,1.16
2023-03-08T18:15:26.300Z,0.98
2023-03-08T18:18:11.769Z,0.98
2023-03-08T18:21:12.134Z,1.20
2023-03-08T18:23:51.640Z,1.08
2023-03-08T18:26:30.223Z,0.98
2023-03-08T18:29:04.641Z,0.91
2023-03-08T18:31:38.422Z,1.15
2023-03-08T18:34:14.436Z,1.09
2023-03-08T18:37:06.183Z,0.88
2023-03-08T18:39:38.844Z,0.80
2023-03-08T18:42:11.906Z,0.88
2023-03-08T18:44:48.406Z,0.85
2023-03-08T18:47:23.728Z,0.91
2023-03-08T18:49:56.431Z,0.86
2023-03-08T18:52:36.359Z,0.97
2023-03-08T18:55:15.826Z,0.87
2023-03-08T18:57:51.472Z,0.79
2023-03-08T19:00:26.287Z,0.91
2023-03-08T19:03:01.463Z,0.98
2023-03-08T19:05:39.484Z,0.87
2023-03-08T19:08:14.582Z,1.06
2023-03-08T19:10:47.509Z,1.04
2023-03-08T19:13:20.233Z,1.02
2023-03-08T19:16:01.815Z,0.93
2023-03-08T19:18:34.678Z,0.86
2023-03-08T19:21:20.999Z,0.80
2023-03-08T19:24:07.705Z,0.82
2023-03-08T19:26:51.405Z,0.94
2023-03-08T19:29:28.906Z,0.91
2023-03-08T19:32:14.043Z,0.88
2023-03-08T19:34:48.503Z,0.78
2023-03-08T19:37:29.499Z,0.60
2023-03-08T19:40:16.057Z,0.79
2023-03-08T19:43:01.408Z,0.82
2023-03-08T19:45:38.112Z,0.67
2023-03-08T19:48:34.763Z,0.64
2023-03-08T19:51:16.669Z,0.55
2023-03-08T19:55:01.044Z,0.56
2023-03-08T19:58:21.009Z,0.43
2023-03-08T20:01:53.590Z,0.54
2023-03-08T20:05:26.300Z,0.59
2023-03-08T20:09:02.116Z,0.49
2023-03-08T20:11:43.416Z,0.58
2023-03-08T20:14:49.479Z,0.66
2023-03-08T20:17:45.780Z,0.61
2023-03-08T20:20:30.527Z,0.55
2023-03-08T20:24:00.853Z,0.67
2023-03-08T20:26:44.019Z,0.62
2023-03-08T20:29:27.021Z,0.54
2023-03-08T20:32:49.747Z,0.53
2023-03-08T20:35:47.752Z,0.50
2023-03-08T20:38:59.980Z,0.58
2023-03-08T20:41:36.595Z,0.58
2023-03-08T20:44:20.217Z,0.46
2023-03-08T20:47:16.126Z,0.55
2023-03-08T20:49:57.358Z,0.55
2023-03-08T20:52:39.575Z,0.43
2023-03-08T20:55:16.448Z,0.51
2023-03-08T20:58:13.942Z,0.53
2023-03-08T21:00:49.360Z,0.58
2023-03-08T21:03:26.328Z,0.54
2023-03-08T21:06:16.358Z,0.60
2023-03-08T21:08:54.164Z,0.77
2023-03-08T21:11:30.795Z,0.75
2023-03-08T21:14:04.123Z,0.70
2023-03-08T21:16:36.920Z,0.73
2023-03-08T21:19:10.145Z,0.60
2023-03-08T21:21:45.544Z,0.63
2023-03-08T21:24:22.769Z,0.65
2023-03-08T21:26:55.454Z,0.71
2023-03-08T21:29:28.985Z,0.69
2023-03-08T21:32:01.703Z,0.65
2023-03-08T21:34:34.507Z,0.74
2023-03-08T21:37:07.152Z,0.73
2023-03-08T21:39:39.772Z,0.57
2023-03-08T21:42:15.036Z,0.70
2023-03-08T21:44:47.762Z,0.59
2023-03-08T21:47:20.418Z,0.50
2023-03-08T21:49:53.168Z,0.56
2023-03-08T21:52:25.859Z,0.57
2023-03-08T21:54:58.466Z,0.59
2023-03-08T21:57:33.939Z,0.49
2023-03-08T22:00:08.483Z,0.52
2023-03-08T22:02:44.982Z,0.75
2023-03-08T22:05:17.822Z,0.69
2023-03-08T22:07:50.499Z,0.65
2023-03-08T22:10:23.129Z,0.54
2023-03-08T22:12:55.755Z,0.61
2023-03-08T22:15:28.560Z,0.70
2023-03-08T22:18:01.420Z,0.66
2023-03-08T22:20:34.058Z,0.72
2023-03-08T22:23:06.989Z,0.65
2023-03-08T22:25:39.604Z,0.86
2023-03-08T22:28:12.426Z,0.59
2023-03-08T22:30:45.083Z,0.78
2023-03-08T22:33:19.895Z,0.75
2023-03-08T22:35:52.627Z,0.60
2023-03-08T22:38:25.489Z,0.64
2023-03-08T22:40:58.210Z,0.80
2023-03-08T22:43:30.833Z,0.79
2023-03-08T22:46:13.259Z,0.81
2023-03-08T22:48:47.860Z,0.69
2023-03-08T22:51:23.294Z,0.48
2023-03-08T22:53:56.386Z,0.69
2023-03-08T22:56:30.386Z,0.84
2023-03-08T22:59:03.759Z,0.72
2023-03-08T23:01:37.136Z,0.84
2023-03-08T23:04:12.243Z,0.92
2023-03-08T23:06:44.983Z,0.77
2023-03-08T23:09:17.574Z,0.75
2023-03-08T23:11:50.442Z,0.73
2023-03-08T23:14:23.128Z,0.85
2023-03-08T23:16:55.751Z,0.88
2023-03-08T23:19:28.341Z,0.83
2023-03-08T23:22:01.562Z,0.73
2023-03-08T23:24:34.332Z,0.77
2023-03-08T23:27:07.050Z,0.69
2023-03-08T23:29:39.738Z,0.67
2023-03-08T23:32:17.567Z,0.53
2023-03-08T23:34:50.503Z,0.55
2023-03-08T23:37:23.388Z,0.53
2023-03-08T23:39:56.948Z,0.50
2023-03-08T23:42:29.607Z,0.66
2023-03-08T23:45:08.329Z,0.44
2023-03-08T23:47:41.220Z,0.62
2023-03-08T23:50:15.824Z,0.49
2023-03-08T23:52:48.672Z,0.43
2023-03-08T23:55:23.323Z,0.57
2023-03-08T23:57:58.065Z,0.52
